createdAt,value
2016-12-14T00:00:03.266Z,55.54
2016-12-14T00:00:29.257Z,55.34
2016-12-14T00:01:10.155Z,55.15
2016-12-14T00:01:36.143Z,55.15
2016-12-14T00:02:02.126Z,55.24
2016-12-14T00:02:28.111Z,55.15
2016-12-14T00:02:54.101Z,55.24
2016-12-14T00:03:20.084Z,55.15
2016-12-14T00:03:46.076Z,55.15
2016-12-14T00:04:12.060Z,55.24
2016-12-14T00:04:38.049Z,55.15
2016-12-14T00:05:04.033Z,55.15
2016-12-14T00:05:30.014Z,55.15
2016-12-14T00:05:56.100Z,55.15
2016-12-14T00:06:22.085Z,55.24
2016-12-14T00:06:48.069Z,55.44
2016-12-14T00:07:14.065Z,55.24
2016-12-14T00:07:40.050Z,55.44
2016-12-14T00:08:06.031Z,55.34
2016-12-14T00:08:32.014Z,55.54
2016-12-14T00:08:57.999Z,55.44
2016-12-14T00:09:23.995Z,55.44
2016-12-14T00:09:49.996Z,55.44
2016-12-14T00:10:15.988Z,55.24
2016-12-14T00:10:41.971Z,55.44
2016-12-14T00:11:07.956Z,55.54
2016-12-14T00:11:33.943Z,55.24
2016-12-14T00:11:59.930Z,55.44
2016-12-14T00:12:25.917Z,55.24
2016-12-14T00:12:51.900Z,55.34
2016-12-14T00:13:17.883Z,55.24
2016-12-14T00:13:43.872Z,55.54
2016-12-14T00:14:09.855Z,55.44
2016-12-14T00:14:35.838Z,55.44
2016-12-14T00:15:01.824Z,55.44
2016-12-14T00:15:27.847Z,55.44
2016-12-14T00:15:53.826Z,55.54
2016-12-14T00:16:19.862Z,55.24
2016-12-14T00:16:45.840Z,55.34
2016-12-14T00:17:11.826Z,55.54
2016-12-14T00:17:37.812Z,55.24
2016-12-14T00:18:03.798Z,55.24
2016-12-14T00:18:29.782Z,55.24
2016-12-14T00:18:55.768Z,55.24
2016-12-14T00:19:21.753Z,55.44
2016-12-14T00:19:47.738Z,55.44
2016-12-14T00:20:13.721Z,55.44
2016-12-14T00:20:39.707Z,55.44
2016-12-14T00:21:05.691Z,55.34
2016-12-14T00:21:31.674Z,55.44
2016-12-14T00:21:57.661Z,55.44
2016-12-14T00:22:23.646Z,55.44
2016-12-14T00:22:49.635Z,55.44
2016-12-14T00:23:15.619Z,55.54
2016-12-14T00:23:41.606Z,55.44
2016-12-14T00:24:07.594Z,55.44
2016-12-14T00:24:33.580Z,55.44
2016-12-14T00:24:59.572Z,55.44
2016-12-14T00:25:25.555Z,55.44
2016-12-14T00:25:51.640Z,55.34
2016-12-14T00:26:17.626Z,55.44
2016-12-14T00:26:43.614Z,55.44
2016-12-14T00:27:09.611Z,55.44
2016-12-14T00:27:35.591Z,55.44
2016-12-14T00:28:01.576Z,55.44
2016-12-14T00:28:27.559Z,55.44
2016-12-14T00:28:53.542Z,55.44
2016-12-14T00:29:19.530Z,55.44
2016-12-14T00:29:45.531Z,55.44
2016-12-14T00:30:11.522Z,55.63
2016-12-14T00:30:37.509Z,55.34
2016-12-14T00:31:03.497Z,55.44
2016-12-14T00:31:29.512Z,55.44
2016-12-14T00:31:55.461Z,55.44
2016-12-14T00:32:21.444Z,55.44
2016-12-14T00:32:47.435Z,55.44
2016-12-14T00:33:13.448Z,55.63
2016-12-14T00:33:39.444Z,55.44
2016-12-14T00:34:05.448Z,55.54
2016-12-14T00:34:31.446Z,55.63
2016-12-14T00:34:57.440Z,55.63
2016-12-14T00:35:23.426Z,55.54
2016-12-14T00:35:49.426Z,55.44
2016-12-14T00:36:15.404Z,55.63
2016-12-14T00:36:41.393Z,55.44
2016-12-14T00:37:07.378Z,55.34
2016-12-14T00:37:33.360Z,55.63
2016-12-14T00:37:59.341Z,55.54
2016-12-14T00:38:25.327Z,55.54
2016-12-14T00:38:51.312Z,55.63
2016-12-14T00:39:17.301Z,55.54
2016-12-14T00:39:43.283Z,55.54
2016-12-14T00:40:09.270Z,55.44
2016-12-14T00:40:35.254Z,55.63
2016-12-14T00:41:01.241Z,55.44
2016-12-14T00:41:27.238Z,55.54
2016-12-14T00:41:53.451Z,55.54
2016-12-14T00:42:19.438Z,55.54
2016-12-14T00:42:45.439Z,55.54
2016-12-14T00:43:11.421Z,55.54
2016-12-14T00:43:37.406Z,55.63
2016-12-14T00:44:03.391Z,55.54
2016-12-14T00:44:29.372Z,55.63
2016-12-14T00:44:55.360Z,55.44
2016-12-14T00:45:21.346Z,55.44
2016-12-14T00:45:47.330Z,55.44
2016-12-14T00:46:13.316Z,55.54
2016-12-14T00:46:39.420Z,55.54
2016-12-14T00:47:05.414Z,55.73
2016-12-14T00:47:31.398Z,55.54
2016-12-14T00:47:57.386Z,55.73
2016-12-14T00:48:23.369Z,55.44
2016-12-14T00:48:49.351Z,55.54
2016-12-14T00:49:15.333Z,55.63
2016-12-14T00:49:41.320Z,55.54
2016-12-14T00:50:07.307Z,55.82
2016-12-14T00:50:33.304Z,55.63
2016-12-14T00:50:59.290Z,55.73
2016-12-14T00:51:25.272Z,55.82
2016-12-14T00:51:51.272Z,56.11
2016-12-14T00:52:17.257Z,56.01
2016-12-14T00:52:43.253Z,56.11
2016-12-14T00:53:09.238Z,55.92
2016-12-14T00:53:35.233Z,55.82
2016-12-14T00:54:01.216Z,55.92
2016-12-14T00:54:27.210Z,55.82
2016-12-14T00:54:53.192Z,55.92
2016-12-14T00:55:19.179Z,56.01
2016-12-14T00:55:45.163Z,55.82
2016-12-14T00:56:11.148Z,55.92
2016-12-14T00:56:37.132Z,56.01
2016-12-14T00:57:03.115Z,56.11
2016-12-14T00:57:29.100Z,56.01
2016-12-14T00:57:55.082Z,56.11
2016-12-14T00:58:21.069Z,56.11
2016-12-14T00:58:47.070Z,56.11
2016-12-14T00:59:13.051Z,56.11
2016-12-14T00:59:39.033Z,56.11
2016-12-14T01:00:05.021Z,56.01
2016-12-14T01:00:31.017Z,56.11
2016-12-14T01:00:57.001Z,56.01
2016-12-14T01:01:22.984Z,56.01
2016-12-14T01:01:49.045Z,56.11
2016-12-14T01:02:15.028Z,56.11
2016-12-14T01:02:41.039Z,56.11
2016-12-14T01:03:07.025Z,56.11
2016-12-14T01:03:33.011Z,56.11
2016-12-14T01:03:58.995Z,56.11
2016-12-14T01:04:25.008Z,56.11
2016-12-14T01:04:50.992Z,56.11
2016-12-14T01:05:16.979Z,56.01
2016-12-14T01:05:42.965Z,56.11
2016-12-14T01:06:08.951Z,56.11
2016-12-14T01:06:34.936Z,56.11
2016-12-14T01:07:00.918Z,56.01
2016-12-14T01:07:26.900Z,56.01
2016-12-14T01:07:52.891Z,56.11
2016-12-14T01:08:18.893Z,56.11
2016-12-14T01:08:44.917Z,56.01
2016-12-14T01:09:10.893Z,56.01
2016-12-14T01:09:36.895Z,56.11
2016-12-14T01:10:02.901Z,56.11
2016-12-14T01:10:28.908Z,56.11
2016-12-14T01:10:54.893Z,56.11
2016-12-14T01:11:20.896Z,56.11
2016-12-14T01:11:46.885Z,56.11
2016-12-14T01:12:12.869Z,56.01
2016-12-14T01:12:38.854Z,56.01
2016-12-14T01:13:04.873Z,56.01
2016-12-14T01:13:30.858Z,56.01
2016-12-14T01:13:56.843Z,56.01
2016-12-14T01:14:22.827Z,56.01
2016-12-14T01:14:48.810Z,56.01
2016-12-14T01:15:14.793Z,56.01
2016-12-14T01:15:40.778Z,56.01
2016-12-14T01:16:06.760Z,56.01
2016-12-14T01:16:32.749Z,56.01
2016-12-14T01:16:58.745Z,56.01
2016-12-14T01:17:24.731Z,56.11
2016-12-14T01:17:50.715Z,56.01
2016-12-14T01:18:16.708Z,56.01
2016-12-14T01:18:42.698Z,56.01
2016-12-14T01:19:08.696Z,56.01
2016-12-14T01:19:34.681Z,55.92
2016-12-14T01:20:00.699Z,56.01
2016-12-14T01:20:26.685Z,56.01
2016-12-14T01:20:52.666Z,56.01
2016-12-14T01:21:18.649Z,56.01
2016-12-14T01:21:44.637Z,56.11
2016-12-14T01:22:10.629Z,56.01
2016-12-14T01:22:36.611Z,56.01
2016-12-14T01:23:02.598Z,56.01
2016-12-14T01:23:28.581Z,56.11
2016-12-14T01:23:54.564Z,55.92
2016-12-14T01:24:20.550Z,56.01
2016-12-14T01:24:46.535Z,56.01
2016-12-14T01:25:12.522Z,56.01
2016-12-14T01:25:38.514Z,56.01
2016-12-14T01:26:04.512Z,56.01
2016-12-14T01:26:30.506Z,56.01
2016-12-14T01:26:56.485Z,56.01
2016-12-14T01:27:22.469Z,56.01
2016-12-14T01:27:48.456Z,55.92
2016-12-14T01:28:14.438Z,56.01
2016-12-14T01:28:40.423Z,56.01
2016-12-14T01:29:06.409Z,56.01
2016-12-14T01:29:32.395Z,56.01
2016-12-14T01:29:58.380Z,56.01
2016-12-14T01:30:24.361Z,56.01
2016-12-14T01:30:50.349Z,55.92
2016-12-14T01:31:16.336Z,56.01
2016-12-14T01:31:42.329Z,56.01
2016-12-14T01:32:08.332Z,56.01
2016-12-14T01:32:34.333Z,55.82
2016-12-14T01:33:00.317Z,56.01
2016-12-14T01:33:26.300Z,56.01
2016-12-14T01:33:52.288Z,56.01
2016-12-14T01:34:18.278Z,56.01
2016-12-14T01:34:44.267Z,56.01
2016-12-14T01:35:10.254Z,56.11
2016-12-14T01:35:36.241Z,56.01
2016-12-14T01:36:02.234Z,56.01
2016-12-14T01:36:28.214Z,55.92
2016-12-14T01:36:54.200Z,56.01
2016-12-14T01:37:20.192Z,56.01
2016-12-14T01:37:46.174Z,56.01
2016-12-14T01:38:12.157Z,56.11
2016-12-14T01:38:38.145Z,56.01
2016-12-14T01:39:04.144Z,56.01
2016-12-14T01:39:30.142Z,56.11
2016-12-14T01:39:56.163Z,56.01
2016-12-14T01:40:22.147Z,56.11
2016-12-14T01:40:48.142Z,56.01
2016-12-14T01:41:14.160Z,56.01
2016-12-14T01:41:40.145Z,56.11
2016-12-14T01:42:06.135Z,56.01
2016-12-14T01:42:32.120Z,56.01
2016-12-14T01:42:58.135Z,56.11
2016-12-14T01:43:24.132Z,56.01
2016-12-14T01:43:50.144Z,56.01
2016-12-14T01:44:16.149Z,55.92
2016-12-14T01:44:42.150Z,56.01
2016-12-14T01:45:08.177Z,55.92
2016-12-14T01:45:34.154Z,56.01
2016-12-14T01:46:00.152Z,56.01
2016-12-14T01:46:26.147Z,56.01
2016-12-14T01:46:52.142Z,56.01
2016-12-14T01:47:18.126Z,56.01
2016-12-14T01:47:44.112Z,56.11
2016-12-14T01:48:10.096Z,56.01
2016-12-14T01:48:36.083Z,56.01
2016-12-14T01:49:02.063Z,56.01
2016-12-14T01:49:28.055Z,56.11
2016-12-14T01:49:54.041Z,56.01
2016-12-14T01:50:20.026Z,56.01
2016-12-14T01:50:46.007Z,56.01
2016-12-14T01:51:11.991Z,55.82
2016-12-14T01:51:37.975Z,55.92
2016-12-14T01:52:03.973Z,55.92
2016-12-14T01:52:29.951Z,56.01
2016-12-14T01:52:55.938Z,55.82
2016-12-14T01:53:21.916Z,56.01
2016-12-14T01:53:47.901Z,56.01
2016-12-14T01:54:13.887Z,55.92
2016-12-14T01:54:39.874Z,56.01
2016-12-14T01:55:05.859Z,56.01
2016-12-14T01:55:31.844Z,56.01
2016-12-14T01:55:57.830Z,55.92
2016-12-14T01:56:23.816Z,56.01
2016-12-14T01:56:49.805Z,56.01
2016-12-14T01:57:15.785Z,55.92
2016-12-14T01:57:41.773Z,56.01
2016-12-14T01:58:07.764Z,56.01
2016-12-14T01:58:33.761Z,56.01
2016-12-14T01:58:59.763Z,55.82
2016-12-14T01:59:25.762Z,56.01
2016-12-14T01:59:51.746Z,56.11
2016-12-14T02:00:17.736Z,55.92
2016-12-14T02:00:43.719Z,56.01
2016-12-14T02:01:09.703Z,56.01
2016-12-14T02:01:35.687Z,56.01
2016-12-14T02:02:01.688Z,56.01
2016-12-14T02:02:27.679Z,56.01
2016-12-14T02:02:53.657Z,56.01
2016-12-14T02:03:19.641Z,56.01
2016-12-14T02:03:45.632Z,55.92
2016-12-14T02:04:11.612Z,55.92
2016-12-14T02:04:37.595Z,56.01
2016-12-14T02:05:03.583Z,55.92
2016-12-14T02:05:29.586Z,56.11
2016-12-14T02:05:55.578Z,56.01
2016-12-14T02:06:21.571Z,56.11
2016-12-14T02:06:47.559Z,56.01
2016-12-14T02:07:13.543Z,56.11
2016-12-14T02:07:39.525Z,55.92
2016-12-14T02:08:05.513Z,55.92
2016-12-14T02:08:31.499Z,55.82
2016-12-14T02:08:57.485Z,55.92
2016-12-14T02:09:23.469Z,55.82
2016-12-14T02:09:49.460Z,56.11
2016-12-14T02:10:15.443Z,55.92
2016-12-14T02:10:41.426Z,55.92
2016-12-14T02:11:07.408Z,56.01
2016-12-14T02:11:33.395Z,56.11
2016-12-14T02:11:59.396Z,56.01
2016-12-14T02:12:25.393Z,56.01
2016-12-14T02:12:51.389Z,55.92
2016-12-14T02:13:17.384Z,56.01
2016-12-14T02:13:43.375Z,56.01
2016-12-14T02:14:09.359Z,56.11
2016-12-14T02:14:35.354Z,55.92
2016-12-14T02:15:01.340Z,56.01
2016-12-14T02:15:27.331Z,56.11
2016-12-14T02:15:53.320Z,55.92
2016-12-14T02:16:19.299Z,56.01
2016-12-14T02:16:45.287Z,55.92
2016-12-14T02:17:11.317Z,56.11
2016-12-14T02:17:37.305Z,56.11
2016-12-14T02:18:03.301Z,56.01
2016-12-14T02:18:29.295Z,55.92
2016-12-14T02:18:55.303Z,55.92
2016-12-14T02:19:21.295Z,55.92
2016-12-14T02:19:47.346Z,56.11
2016-12-14T02:20:13.331Z,55.82
2016-12-14T02:20:39.317Z,55.92
2016-12-14T02:21:05.299Z,56.01
2016-12-14T02:21:31.284Z,55.92
2016-12-14T02:21:57.315Z,55.92
2016-12-14T02:22:23.290Z,55.92
2016-12-14T02:22:49.274Z,56.01
2016-12-14T02:23:15.258Z,55.82
2016-12-14T02:23:41.239Z,55.92
2016-12-14T02:24:07.222Z,55.92
2016-12-14T02:24:33.213Z,55.92
2016-12-14T02:24:59.205Z,56.11
2016-12-14T02:25:25.189Z,55.92
2016-12-14T02:25:51.174Z,55.92
2016-12-14T02:26:17.161Z,55.92
2016-12-14T02:26:43.145Z,55.82
2016-12-14T02:27:09.124Z,55.92
2016-12-14T02:27:35.109Z,55.82
2016-12-14T02:28:01.091Z,55.92
2016-12-14T02:28:27.076Z,56.01
2016-12-14T02:28:53.076Z,56.01
2016-12-14T02:29:19.047Z,55.82
2016-12-14T02:29:45.028Z,55.82
2016-12-14T02:30:11.014Z,55.82
2016-12-14T02:30:37.012Z,55.92
2016-12-14T02:31:03.010Z,55.92
2016-12-14T02:31:28.996Z,55.92
2016-12-14T02:31:54.982Z,55.92
2016-12-14T02:32:20.969Z,55.92
2016-12-14T02:32:46.952Z,56.01
2016-12-14T02:33:12.939Z,55.92
2016-12-14T02:33:38.923Z,55.73
2016-12-14T02:34:04.941Z,55.73
2016-12-14T02:34:30.895Z,55.92
2016-12-14T02:34:56.875Z,56.01
2016-12-14T02:35:22.926Z,55.92
2016-12-14T02:35:48.913Z,55.92
2016-12-14T02:36:14.898Z,55.92
2016-12-14T02:36:40.879Z,55.92
2016-12-14T02:37:06.865Z,55.92
2016-12-14T02:37:32.847Z,55.73
2016-12-14T02:37:58.837Z,55.73
2016-12-14T02:38:24.826Z,55.73
2016-12-14T02:38:50.810Z,55.82
2016-12-14T02:39:16.793Z,55.92
2016-12-14T02:39:42.777Z,55.82
2016-12-14T02:40:08.762Z,55.92
2016-12-14T02:40:34.746Z,55.92
2016-12-14T02:41:00.752Z,55.92
2016-12-14T02:41:26.733Z,55.73
2016-12-14T02:41:52.715Z,55.92
2016-12-14T02:42:18.700Z,55.82
2016-12-14T02:42:44.685Z,55.92
2016-12-14T02:43:10.667Z,55.92
2016-12-14T02:43:36.655Z,55.92
2016-12-14T02:44:02.646Z,55.82
2016-12-14T02:44:28.635Z,55.82
2016-12-14T02:44:54.617Z,55.82
2016-12-14T02:45:20.636Z,55.92
2016-12-14T02:45:46.620Z,55.73
2016-12-14T02:46:12.604Z,55.82
2016-12-14T02:46:38.587Z,55.82
2016-12-14T02:47:04.571Z,55.73
2016-12-14T02:47:30.559Z,55.73
2016-12-14T02:47:56.539Z,56.11
2016-12-14T02:48:22.527Z,55.73
2016-12-14T02:48:48.511Z,55.73
2016-12-14T02:49:14.495Z,55.63
2016-12-14T02:49:40.480Z,55.73
2016-12-14T02:50:06.466Z,55.82
2016-12-14T02:50:32.450Z,55.82
2016-12-14T02:50:58.471Z,55.82
2016-12-14T02:51:24.461Z,55.82
2016-12-14T02:51:50.479Z,55.82
2016-12-14T02:52:16.468Z,55.82
2016-12-14T02:52:42.494Z,55.92
2016-12-14T02:53:08.493Z,55.73
2016-12-14T02:53:34.506Z,55.73
2016-12-14T02:54:00.488Z,55.73
2016-12-14T02:54:26.491Z,55.82
2016-12-14T02:54:52.470Z,55.82
2016-12-14T02:55:18.461Z,55.73
2016-12-14T02:55:44.453Z,55.82
2016-12-14T02:56:10.437Z,55.73
2016-12-14T02:56:36.419Z,55.73
2016-12-14T02:57:02.409Z,55.82
2016-12-14T02:57:28.392Z,55.82
2016-12-14T02:57:54.375Z,55.73
2016-12-14T02:58:20.365Z,55.73
2016-12-14T02:58:46.353Z,55.79
2016-12-14T02:59:12.329Z,55.73
2016-12-14T02:59:38.313Z,55.82
2016-12-14T03:00:04.312Z,55.73
2016-12-14T03:00:30.296Z,55.82
2016-12-14T03:00:56.280Z,55.63
2016-12-14T03:01:22.287Z,55.82
2016-12-14T03:01:48.277Z,55.82
2016-12-14T03:02:14.265Z,55.82
2016-12-14T03:02:40.263Z,55.82
2016-12-14T03:03:06.248Z,55.92
2016-12-14T03:03:32.237Z,55.82
2016-12-14T03:03:58.221Z,55.73
2016-12-14T03:04:24.207Z,55.82
2016-12-14T03:04:50.191Z,55.73
2016-12-14T03:05:16.177Z,55.63
2016-12-14T03:05:42.160Z,55.82
2016-12-14T03:06:08.145Z,55.82
2016-12-14T03:06:34.128Z,55.82
2016-12-14T03:07:00.118Z,55.92
2016-12-14T03:07:26.098Z,55.82
2016-12-14T03:07:52.085Z,55.82
2016-12-14T03:08:18.083Z,55.82
2016-12-14T03:08:44.072Z,55.82
2016-12-14T03:09:10.098Z,55.92
2016-12-14T03:09:36.079Z,55.82
2016-12-14T03:10:02.069Z,55.82
2016-12-14T03:10:28.046Z,55.82
2016-12-14T03:10:54.033Z,55.82
2016-12-14T03:11:20.015Z,55.82
2016-12-14T03:11:46.003Z,55.82
2016-12-14T03:12:11.985Z,55.73
2016-12-14T03:12:37.970Z,55.82
2016-12-14T03:13:03.955Z,55.82
2016-12-14T03:13:29.938Z,55.73
2016-12-14T03:13:55.924Z,55.82
2016-12-14T03:14:21.906Z,55.82
2016-12-14T03:14:47.896Z,55.82
2016-12-14T03:15:13.883Z,55.82
2016-12-14T03:15:39.866Z,55.82
2016-12-14T03:16:05.862Z,55.73
2016-12-14T03:16:31.843Z,56.01
2016-12-14T03:16:57.832Z,55.82
2016-12-14T03:17:23.822Z,55.73
2016-12-14T03:17:49.807Z,55.82
2016-12-14T03:18:15.794Z,55.82
2016-12-14T03:18:41.776Z,55.7
2016-12-14T03:19:07.764Z,55.7
2016-12-14T03:19:33.743Z,55.7
2016-12-14T03:19:59.727Z,55.82
2016-12-14T03:20:25.715Z,55.79
2016-12-14T03:20:51.729Z,55.73
2016-12-14T03:21:17.715Z,55.73
2016-12-14T03:21:43.709Z,55.7
2016-12-14T03:22:09.693Z,55.82
2016-12-14T03:22:35.677Z,55.82
2016-12-14T03:23:01.663Z,55.73
2016-12-14T03:23:27.644Z,55.73
2016-12-14T03:23:53.646Z,55.82
2016-12-14T03:24:19.633Z,55.82
2016-12-14T03:24:45.618Z,55.82
2016-12-14T03:25:11.638Z,55.82
2016-12-14T03:25:37.623Z,55.82
2016-12-14T03:26:03.610Z,55.92
2016-12-14T03:26:29.603Z,55.82
2016-12-14T03:26:55.616Z,55.82
2016-12-14T03:27:21.616Z,55.82
2016-12-14T03:27:47.597Z,55.82
2016-12-14T03:28:13.601Z,55.82
2016-12-14T03:28:39.597Z,55.82
2016-12-14T03:29:05.602Z,55.73
2016-12-14T03:29:31.587Z,55.82
2016-12-14T03:29:57.571Z,55.82
2016-12-14T03:30:23.558Z,55.82
2016-12-14T03:30:49.546Z,55.82
2016-12-14T03:31:15.533Z,55.79
2016-12-14T03:31:41.514Z,56.01
2016-12-14T03:32:07.505Z,55.7
2016-12-14T03:32:33.494Z,55.79
2016-12-14T03:32:59.479Z,55.73
2016-12-14T03:33:25.465Z,55.73
2016-12-14T03:33:51.448Z,55.79
2016-12-14T03:34:17.438Z,55.82
2016-12-14T03:34:43.449Z,55.79
2016-12-14T03:35:09.436Z,55.82
2016-12-14T03:35:35.421Z,55.79
2016-12-14T03:36:01.408Z,55.89
2016-12-14T03:36:27.391Z,55.79
2016-12-14T03:36:53.377Z,55.79
2016-12-14T03:37:19.360Z,55.92
2016-12-14T03:37:45.340Z,55.7
2016-12-14T03:38:11.335Z,55.79
2016-12-14T03:38:37.323Z,55.89
2016-12-14T03:39:03.319Z,55.89
2016-12-14T03:39:29.305Z,55.89
2016-12-14T03:39:55.291Z,55.89
2016-12-14T03:40:21.273Z,55.7
2016-12-14T03:40:47.260Z,55.73
2016-12-14T03:41:13.245Z,55.89
2016-12-14T03:41:39.235Z,55.79
2016-12-14T03:42:05.217Z,55.73
2016-12-14T03:42:31.222Z,55.92
2016-12-14T03:42:57.207Z,55.79
2016-12-14T03:43:23.193Z,55.82
2016-12-14T03:43:49.192Z,55.82
2016-12-14T03:44:15.174Z,55.82
2016-12-14T03:44:41.160Z,55.89
2016-12-14T03:45:07.145Z,55.7
2016-12-14T03:45:33.134Z,55.7
2016-12-14T03:45:59.117Z,55.82
2016-12-14T03:46:25.103Z,55.82
2016-12-14T03:46:51.187Z,55.73
2016-12-14T03:47:17.177Z,55.79
2016-12-14T03:47:43.159Z,55.92
2016-12-14T03:48:09.149Z,56.09
2016-12-14T03:48:35.136Z,55.7
2016-12-14T03:49:01.145Z,55.7
2016-12-14T03:49:27.105Z,55.79
2016-12-14T03:49:53.089Z,55.79
2016-12-14T03:50:19.081Z,55.82
2016-12-14T03:50:45.064Z,55.82
2016-12-14T03:51:11.050Z,55.89
2016-12-14T03:51:37.035Z,55.79
2016-12-14T03:52:03.017Z,55.89
2016-12-14T03:52:28.998Z,55.7
2016-12-14T03:52:55.008Z,55.89
2016-12-14T03:53:20.989Z,55.89
2016-12-14T03:53:46.980Z,55.79
2016-12-14T03:54:12.964Z,55.89
2016-12-14T03:54:38.958Z,55.89
2016-12-14T03:55:04.958Z,55.92
2016-12-14T03:55:30.947Z,55.79
2016-12-14T03:55:56.950Z,55.7
2016-12-14T03:56:22.968Z,55.82
2016-12-14T03:56:48.963Z,55.89
2016-12-14T03:57:14.955Z,55.7
2016-12-14T03:57:40.953Z,55.89
2016-12-14T03:58:06.935Z,55.7
2016-12-14T03:58:32.932Z,55.79
2016-12-14T03:58:58.912Z,55.79
2016-12-14T03:59:24.894Z,55.82
2016-12-14T03:59:50.881Z,55.89
2016-12-14T04:00:16.862Z,55.89
2016-12-14T04:00:42.870Z,55.89
2016-12-14T04:01:08.878Z,55.7
2016-12-14T04:01:34.866Z,55.82
2016-12-14T04:02:00.870Z,55.79
2016-12-14T04:02:26.868Z,55.79
2016-12-14T04:02:52.906Z,55.73
2016-12-14T04:03:18.929Z,55.92
2016-12-14T04:03:44.919Z,55.82
2016-12-14T04:04:10.960Z,55.89
2016-12-14T04:04:36.908Z,55.79
2016-12-14T04:05:02.904Z,55.79
2016-12-14T04:05:28.890Z,55.79
2016-12-14T04:05:54.880Z,55.89
2016-12-14T04:06:20.864Z,55.82
2016-12-14T04:06:46.848Z,55.79
2016-12-14T04:07:12.882Z,55.92
2016-12-14T04:07:38.866Z,55.7
2016-12-14T04:08:04.850Z,55.79
2016-12-14T04:08:30.834Z,55.79
2016-12-14T04:08:56.819Z,55.79
2016-12-14T04:09:22.805Z,55.92
2016-12-14T04:09:48.792Z,55.89
2016-12-14T04:10:14.777Z,55.92
2016-12-14T04:10:40.770Z,55.79
2016-12-14T04:11:06.754Z,55.89
2016-12-14T04:11:32.741Z,56.01
2016-12-14T04:11:58.721Z,55.89
2016-12-14T04:12:24.706Z,55.92
2016-12-14T04:12:50.691Z,55.79
2016-12-14T04:13:16.673Z,55.79
2016-12-14T04:13:42.659Z,55.7
2016-12-14T04:14:08.648Z,55.7
2016-12-14T04:14:34.629Z,55.7
2016-12-14T04:15:00.675Z,55.82
2016-12-14T04:15:26.662Z,55.79
2016-12-14T04:15:52.646Z,55.99
2016-12-14T04:16:18.631Z,55.79
2016-12-14T04:16:44.613Z,55.89
2016-12-14T04:17:10.616Z,55.79
2016-12-14T04:17:36.597Z,55.79
2016-12-14T04:18:02.586Z,55.92
2016-12-14T04:18:28.586Z,55.79
2016-12-14T04:18:54.585Z,55.89
2016-12-14T04:19:20.568Z,55.89
2016-12-14T04:19:46.552Z,55.79
2016-12-14T04:20:12.609Z,55.89
2016-12-14T04:20:38.534Z,55.89
2016-12-14T04:21:04.519Z,55.89
2016-12-14T04:21:30.504Z,55.89
2016-12-14T04:21:56.500Z,55.99
2016-12-14T04:22:22.485Z,55.89
2016-12-14T04:22:48.470Z,55.89
2016-12-14T04:23:14.451Z,55.99
2016-12-14T04:23:40.437Z,55.89
2016-12-14T04:24:06.425Z,55.99
2016-12-14T04:24:32.420Z,55.89
2016-12-14T04:24:58.408Z,55.79
2016-12-14T04:25:24.398Z,55.99
2016-12-14T04:25:50.388Z,55.89
2016-12-14T04:26:16.413Z,55.92
2016-12-14T04:26:42.416Z,55.79
2016-12-14T04:27:08.398Z,55.79
2016-12-14T04:27:34.388Z,55.79
2016-12-14T04:28:00.385Z,55.99
2016-12-14T04:28:26.403Z,55.92
2016-12-14T04:28:52.401Z,55.89
2016-12-14T04:29:18.417Z,55.89
2016-12-14T04:29:44.410Z,55.89
2016-12-14T04:30:10.401Z,55.92
2016-12-14T04:30:36.408Z,55.82
2016-12-14T04:31:02.405Z,55.82
2016-12-14T04:31:28.389Z,55.99
2016-12-14T04:31:54.373Z,55.89
2016-12-14T04:32:20.371Z,55.89
2016-12-14T04:32:46.358Z,55.89
2016-12-14T04:33:12.372Z,55.89
2016-12-14T04:33:38.371Z,55.89
2016-12-14T04:34:04.360Z,55.99
2016-12-14T04:34:30.345Z,55.82
2016-12-14T04:34:56.328Z,55.99
2016-12-14T04:35:22.312Z,55.99
2016-12-14T04:35:48.296Z,55.89
2016-12-14T04:36:14.280Z,55.89
2016-12-14T04:36:40.276Z,55.89
2016-12-14T04:37:06.251Z,55.99
2016-12-14T04:37:32.258Z,55.99
2016-12-14T04:37:58.259Z,55.99
2016-12-14T04:38:24.245Z,55.89
2016-12-14T04:38:50.243Z,55.89
2016-12-14T04:39:16.240Z,55.89
2016-12-14T04:39:42.269Z,55.99
2016-12-14T04:40:08.441Z,55.89
2016-12-14T04:40:34.572Z,55.99
2016-12-14T04:41:00.556Z,55.99
2016-12-14T04:41:26.543Z,55.89
2016-12-14T04:41:52.528Z,55.89
2016-12-14T04:42:18.511Z,55.99
2016-12-14T04:42:44.742Z,55.89
2016-12-14T04:43:10.899Z,55.89
2016-12-14T04:43:36.883Z,55.89
2016-12-14T04:44:02.865Z,55.89
2016-12-14T04:44:28.850Z,55.89
2016-12-14T04:44:54.898Z,55.99
2016-12-14T04:45:20.880Z,55.89
2016-12-14T04:45:47.129Z,55.79
2016-12-14T04:46:13.921Z,55.79
2016-12-14T04:46:39.907Z,55.99
2016-12-14T04:47:05.890Z,55.89
2016-12-14T04:47:31.896Z,55.89
2016-12-14T04:47:57.879Z,55.89
2016-12-14T04:48:23.862Z,55.89
2016-12-14T04:48:49.846Z,55.89
2016-12-14T04:49:15.848Z,55.99
2016-12-14T04:49:41.836Z,55.89
2016-12-14T04:50:07.820Z,55.79
2016-12-14T04:50:33.805Z,55.99
2016-12-14T04:50:59.795Z,55.89
2016-12-14T04:51:25.775Z,55.79
2016-12-14T04:51:51.761Z,55.99
2016-12-14T04:52:17.743Z,55.89
2016-12-14T04:52:43.731Z,55.89
2016-12-14T04:53:09.868Z,55.89
2016-12-14T04:53:35.856Z,55.89
2016-12-14T04:54:01.856Z,55.89
2016-12-14T04:54:27.844Z,55.99
2016-12-14T04:54:53.826Z,55.99
2016-12-14T04:55:19.810Z,55.99
2016-12-14T04:55:45.799Z,55.99
2016-12-14T04:56:12.380Z,55.99
2016-12-14T04:56:38.283Z,55.89
2016-12-14T04:57:04.272Z,55.89
2016-12-14T04:57:30.461Z,55.89
2016-12-14T04:57:56.455Z,55.99
2016-12-14T04:58:22.487Z,55.99
2016-12-14T04:58:48.469Z,55.89
2016-12-14T04:59:14.465Z,55.89
2016-12-14T04:59:40.466Z,55.89
2016-12-14T05:00:06.477Z,55.89
2016-12-14T05:00:32.469Z,55.89
2016-12-14T05:00:58.456Z,55.89
2016-12-14T05:01:24.454Z,55.89
2016-12-14T05:01:50.442Z,55.89
2016-12-14T05:02:16.428Z,55.99
2016-12-14T05:02:42.412Z,55.99
2016-12-14T05:03:08.404Z,55.99
2016-12-14T05:03:34.380Z,55.99
2016-12-14T05:04:00.369Z,55.99
2016-12-14T05:04:26.353Z,55.89
2016-12-14T05:04:52.337Z,55.89
2016-12-14T05:05:18.321Z,55.89
2016-12-14T05:05:44.306Z,55.99
2016-12-14T05:06:10.290Z,55.89
2016-12-14T05:06:36.277Z,55.99
2016-12-14T05:07:02.276Z,56.09
2016-12-14T05:07:28.271Z,55.89
2016-12-14T05:07:54.250Z,55.89
2016-12-14T05:08:20.245Z,55.79
2016-12-14T05:08:46.244Z,55.89
2016-12-14T05:09:12.226Z,56.27
2016-12-14T05:09:38.213Z,55.89
2016-12-14T05:10:04.195Z,55.99
2016-12-14T05:10:30.179Z,55.89
2016-12-14T05:10:56.166Z,55.99
2016-12-14T05:11:22.149Z,55.99
2016-12-14T05:11:48.145Z,56.18
2016-12-14T05:12:14.146Z,55.89
2016-12-14T05:12:40.137Z,55.89
2016-12-14T05:13:06.153Z,55.99
2016-12-14T05:13:32.158Z,55.89
2016-12-14T05:13:58.178Z,55.89
2016-12-14T05:14:24.172Z,55.99
2016-12-14T05:14:50.165Z,56.18
2016-12-14T05:15:16.170Z,55.89
2016-12-14T05:15:42.139Z,55.99
2016-12-14T05:16:08.128Z,55.99
2016-12-14T05:16:34.109Z,55.99
2016-12-14T05:17:00.095Z,55.99
2016-12-14T05:17:26.115Z,55.99
2016-12-14T05:17:52.098Z,55.99
2016-12-14T05:18:18.097Z,55.99
2016-12-14T05:18:44.084Z,55.89
2016-12-14T05:19:10.067Z,55.89
2016-12-14T05:19:36.050Z,55.89
2016-12-14T05:20:02.035Z,55.99
2016-12-14T05:20:28.023Z,55.99
2016-12-14T05:20:54.028Z,55.99
2016-12-14T05:21:20.013Z,55.99
2016-12-14T05:21:46.002Z,55.99
2016-12-14T05:22:11.983Z,56.27
2016-12-14T05:22:37.968Z,55.99
2016-12-14T05:23:03.954Z,55.89
2016-12-14T05:23:29.936Z,55.99
2016-12-14T05:23:55.922Z,55.99
2016-12-14T05:24:21.909Z,55.99
2016-12-14T05:24:47.905Z,55.99
2016-12-14T05:25:13.895Z,55.99
2016-12-14T05:25:39.877Z,55.89
2016-12-14T05:26:05.863Z,55.89
2016-12-14T05:26:31.849Z,55.89
2016-12-14T05:26:57.832Z,55.89
2016-12-14T05:27:23.816Z,55.99
2016-12-14T05:27:49.797Z,55.89
2016-12-14T05:28:15.783Z,55.99
2016-12-14T05:28:41.781Z,55.99
2016-12-14T05:29:07.766Z,55.89
2016-12-14T05:29:33.775Z,55.99
2016-12-14T05:29:59.762Z,56.18
2016-12-14T05:30:25.783Z,55.99
2016-12-14T05:30:51.771Z,55.99
2016-12-14T05:31:17.768Z,55.99
2016-12-14T05:31:43.752Z,55.99
2016-12-14T05:32:09.736Z,55.99
2016-12-14T05:32:35.770Z,56.09
2016-12-14T05:33:01.783Z,56.18
2016-12-14T05:33:27.766Z,55.99
2016-12-14T05:33:53.753Z,56.09
2016-12-14T05:34:19.737Z,56.09
2016-12-14T05:34:45.729Z,56.27
2016-12-14T05:35:11.715Z,55.99